x

La Perouse Bank (46206) Wave Buoy

12:00pm - Thu 25th May 2017 All times are PDT. -7 hours from GMT.

  • Sig Wave height 8.5ft
  • Peak Period 10s
  • Wind
    2mph, 9mph gusts
  • Sea Temp 53°f
  • Air Temp 51°f
  • Sea Pressure 1013.6mb
  • La Perouse Bank
  • La Perouse Bank

More Historic Weather Station data

Upgrade to MSW Pro to gain access to the past 30 days of data for over 8000 Wavebouys and Weather Stations around the globe.

Join Pro

Comparision Forecast

View Surf forecast
   
Thu 05/25 12:00pm 8.5ft 10s 2 9 mph 1013.6mb 53f 51f
11:00am 7.5ft 10s 11 16 mph 1013.5mb 51f 50f
10:00am 8ft 11s 13 18 mph 1013.1mb 51f 50f
9:00am 7.5ft 10s 16 20 mph 1012.7mb 51f 49f
8:00am 9ft 10s 16 22 mph 1012.3mb 51f 49f
7:00am 9ft 11s 16 18 mph 1012.2mb 51f 49f
6:00am 8.5ft 11s 13 18 mph 1012mb 51f 50f
5:00am 10.5ft 11s 11 16 mph 1012.1mb 51f 51f
4:00am 11ft 10s 2 7 mph 1012.3mb 51f 51f
3:00am 11ft 10s 7 11 mph 1012.3mb 51f 51f
2:00am 10ft 11s 11 13 mph 1012.4mb 51f 51f
1:00am 11ft 10s 16 18 mph 1012.7mb 51f 52f
12:00am 10.5ft 11s 16 18 mph 1012.8mb 51f 52f
Wed 05/24 11:00pm 10.5ft 10s 18 22 mph 1013.1mb 51f 52f
10:00pm 11ft 10s 18 22 mph 1013.3mb 51f 53f
9:00pm 11.5ft 10s 18 25 mph 1013.3mb 51f 53f
8:00pm 12ft 11s 20 25 mph 1013.7mb 51f 53f
7:00pm 11.5ft 10s 22 29 mph 1013.6mb 51f 53f
6:00pm 12ft 10s 25 29 mph 1013.8mb 51f 52f
5:00pm 13ft 10s 27 34 mph 1014.2mb 51f 52f
4:00pm 12ft 10s 27 34 mph 1014.6mb 51f 52f
3:00pm 12ft 9s 29 36 mph 1014.9mb 51f 52f
2:00pm 12ft 10s 27 34 mph 1015.4mb 51f 52f
1:00pm 11.5ft 10s 29 34 mph 1016mb 51f 52f
12:00pm 11.5ft 10s 27 34 mph 1016.5mb 51f 52f
11:00am 11ft 9s 27 36 mph 1016.9mb 51f 52f
10:00am 11ft 10s 25 31 mph 1017.2mb 52f 52f
9:00am 10.5ft 9s 25 29 mph 1017.6mb 52f 52f
8:00am 11ft 8s 25 29 mph 1017.9mb 52f 52f
7:00am 11ft 10s 22 29 mph 1018.2mb 52f 52f
6:00am 11ft 8s 27 34 mph 1018.2mb 52f 52f
5:00am 10.5ft 9s 27 34 mph 1018.6mb 52f 52f
4:00am 9.5ft 8s 25 29 mph 1019.1mb 51f 51f
3:00am 10ft 8s 22 31 mph 1019.4mb 51f 52f
2:00am 10ft 9s 20 25 mph 1019.9mb 52f 51f
1:00am 11ft 8s 25 29 mph 1019.8mb 52f 51f
12:00am 10.5ft 9s 27 36 mph 1019.7mb 53f 51f
Tue 05/23 11:00pm 10.5ft 8s 31 36 mph 1019.4mb 53f 51f
10:00pm 11ft 8s 29 36 mph 1019.6mb 53f 52f
9:00pm 11ft 8s 31 38 mph 1019.2mb 53f 52f
8:00pm 11ft 8s 31 40 mph 1019mb 54f 52f
6:00pm 10ft 7s 31 40 mph 1019.4mb 54f 52f
5:00pm 9.5ft 7s 31 40 mph 1019.7mb 54f 52f
4:00pm 9.5ft 6s 31 36 mph 1019.8mb 55f 53f
3:00pm 8.5ft 11s 27 34 mph 1019.8mb 55f 53f
2:00pm 8ft 11s 25 31 mph 1019.7mb 55f 53f
1:00pm 7ft 12s 27 34 mph 1019.4mb 55f 54f
12:00pm 6.5ft 12s 22 29 mph 1019.2mb 55f 54f
11:00am 7ft 13s 22 27 mph 1018.9mb 55f 53f
10:00am 7.5ft 13s 18 20 mph 1018.6mb 55f 54f
9:00am 7ft 13s 20 25 mph 1018.9mb 55f 53f
8:00am 8ft 14s 20 25 mph 1018.7mb 55f 53f
7:00am 7.5ft 13s 22 25 mph 1018.4mb 55f 53f
6:00am 8.5ft 11s 20 25 mph 1018.5mb 55f 53f
5:00am 8ft 14s 22 27 mph 1018.5mb 55f 53f
4:00am 8ft 10s 27 31 mph 1018.5mb 55f 54f
3:00am 7.5ft 10s 20 25 mph 1018.6mb 55f 55f
2:00am 7.5ft 11s 22 27 mph 1018.7mb 55f 54f
1:00am 7.5ft 11s 22 27 mph 1018.6mb 55f 55f
12:00am 7ft 11s 22 27 mph 1018.8mb 55f 54f
Mon 05/22 11:00pm 7ft 11s 22 31 mph 1018.8mb 55f 54f
10:00pm 6.5ft 10s 22 29 mph 1018.9mb 55f 56f
9:00pm 6ft 10s 22 29 mph 1019mb 55f 56f
8:00pm 6.5ft 10s 22 27 mph 1019.1mb 54f 56f
7:00pm 6.5ft 9s 20 25 mph 1019.6mb 54f 56f
6:00pm 6ft 10s 18 22 mph 1020.5mb 55f 56f
5:00pm 6.5ft 10s 20 25 mph 1021mb 55f 56f
4:00pm 6.5ft 10s 22 27 mph 1021.4mb 55f 56f
3:00pm 7ft 10s 13 18 mph 1021.8mb 55f 56f
2:00pm 7ft 11s 16 20 mph 1022mb 54f 56f
1:00pm 6.5ft 11s 16 20 mph 1022.4mb 55f 56f
12:00pm 6.5ft 10s 7 9 mph 1022.3mb 54f 56f
11:00am 6.5ft 10s 9 13 mph 1022.3mb 54f 55f
10:00am 6.5ft 10s 4 9 mph 1022mb 54f 55f
9:00am 6ft 10s 7 9 mph 1022.3mb 54f 55f
8:00am 6ft 10s 2 4 mph 1021.9mb 54f 55f
7:00am 6ft 10s 9 11 mph 1022mb 54f 55f
6:00am 5.5ft 10s 16 20 mph 1022.4mb 54f 55f
5:00am 5.5ft 10s 13 16 mph 1022.4mb 54f 55f
4:00am 5.5ft 10s 9 13 mph 1022.3mb 54f 55f
3:00am 5ft 10s 11 13 mph 1022.5mb 54f 55f
2:00am 5.5ft 10s 13 16 mph 1022.5mb 54f 55f
1:00am 5ft 10s 13 18 mph 1022.6mb 54f 55f
12:00am 5ft 10s 16 18 mph 1022.7mb 53f 55f
Sun 05/21 11:00pm 5ft 10s 16 18 mph 1022.8mb 54f 55f
10:00pm 5ft 11s 18 22 mph 1023mb 54f 55f
9:00pm 4.5ft 11s 18 20 mph 1023mb 54f 55f